createdAt,value
2022-08-24T00:00:43.496Z,25.58
2022-08-24T00:01:43.488Z,25.58
2022-08-24T00:02:43.556Z,25.58
2022-08-24T00:03:43.460Z,25.59
2022-08-24T00:04:43.449Z,25.52
2022-08-24T00:05:43.441Z,25.46
2022-08-24T00:06:43.433Z,25.52
2022-08-24T00:07:43.418Z,25.49
2022-08-24T00:08:43.401Z,25.49
2022-08-24T00:09:43.394Z,25.36
2022-08-24T00:10:43.382Z,25.28
2022-08-24T00:11:43.370Z,25.26
2022-08-24T00:12:43.357Z,25.22
2022-08-24T00:13:43.348Z,24.99
2022-08-24T00:14:43.332Z,24.91
2022-08-24T00:15:43.315Z,24.94
2022-08-24T00:16:43.398Z,24.91
2022-08-24T00:17:43.295Z,24.96
2022-08-24T00:18:43.284Z,24.97
2022-08-24T00:19:43.269Z,25.03
2022-08-24T00:20:45.213Z,24.97
2022-08-24T00:21:43.248Z,25.03
2022-08-24T00:22:43.235Z,24.97
2022-08-24T00:23:43.222Z,24.96
2022-08-24T00:24:43.208Z,24.96
2022-08-24T00:25:43.197Z,24.94
2022-08-24T00:26:43.191Z,24.91
2022-08-24T00:27:43.174Z,25.04
2022-08-24T00:28:43.165Z,24.94
2022-08-24T00:29:43.149Z,24.96
2022-08-24T00:30:43.141Z,24.99
2022-08-24T00:31:43.157Z,24.96
2022-08-24T00:32:43.114Z,24.96
2022-08-24T00:33:43.108Z,24.96
2022-08-24T00:34:58.340Z,24.94
2022-08-24T00:35:43.080Z,24.96
2022-08-24T00:36:43.062Z,25.00
2022-08-24T00:37:43.054Z,25.03
2022-08-24T00:38:43.046Z,24.96
2022-08-24T00:39:43.059Z,24.94
2022-08-24T00:40:43.018Z,25.01
2022-08-24T00:41:43.009Z,24.90
2022-08-24T00:42:42.995Z,24.89
2022-08-24T00:43:42.982Z,24.93
2022-08-24T00:44:42.969Z,24.90
2022-08-24T00:45:43.027Z,24.86
2022-08-24T00:46:42.951Z,24.86
2022-08-24T00:47:42.936Z,24.75
2022-08-24T00:48:42.925Z,24.81
2022-08-24T00:49:42.909Z,24.74
2022-08-24T00:50:42.899Z,24.75
2022-08-24T00:51:42.882Z,24.63
2022-08-24T00:52:42.874Z,24.75
2022-08-24T00:53:42.863Z,24.66
2022-08-24T00:54:46.144Z,24.71
2022-08-24T00:55:42.838Z,24.63
2022-08-24T00:56:42.829Z,24.65
2022-08-24T00:57:42.864Z,24.63
2022-08-24T00:58:42.801Z,24.68
2022-08-24T00:59:42.788Z,24.71
2022-08-24T01:00:42.826Z,24.65
2022-08-24T01:01:42.964Z,24.60
2022-08-24T01:02:42.834Z,24.63
2022-08-24T01:03:42.736Z,24.62
2022-08-24T01:04:42.735Z,24.56
2022-08-24T01:05:42.717Z,24.52
2022-08-24T01:06:42.697Z,24.52
2022-08-24T01:07:42.689Z,24.53
2022-08-24T01:08:42.679Z,24.52
2022-08-24T01:09:42.662Z,24.52
2022-08-24T01:10:42.651Z,24.48
2022-08-24T01:11:42.641Z,24.47
2022-08-24T01:12:42.629Z,24.53
2022-08-24T01:13:42.619Z,24.53
2022-08-24T01:14:42.605Z,24.55
2022-08-24T01:15:42.599Z,24.55
2022-08-24T01:16:42.633Z,24.56
2022-08-24T01:17:42.567Z,24.56
2022-08-24T01:18:42.557Z,24.53
2022-08-24T01:19:42.546Z,24.60
2022-08-24T01:20:42.530Z,24.59
2022-08-24T01:21:42.519Z,24.59
2022-08-24T01:22:42.506Z,24.62
2022-08-24T01:23:42.490Z,24.55
2022-08-24T01:24:42.484Z,24.58
2022-08-24T01:25:42.467Z,24.56
2022-08-24T01:26:42.454Z,24.55
2022-08-24T01:27:42.445Z,24.52
2022-08-24T01:28:42.433Z,24.58
2022-08-24T01:29:42.422Z,24.56
2022-08-24T01:30:42.412Z,24.45
2022-08-24T01:31:42.470Z,24.55
2022-08-24T01:32:42.391Z,24.53
2022-08-24T01:33:42.370Z,24.53
2022-08-24T01:34:42.358Z,24.56
2022-08-24T01:35:42.345Z,24.51
2022-08-24T01:36:42.332Z,24.55
2022-08-24T01:37:42.319Z,24.52
2022-08-24T01:38:42.308Z,24.51
2022-08-24T01:39:42.339Z,24.51
2022-08-24T01:40:42.285Z,24.47
2022-08-24T01:41:42.268Z,24.51
2022-08-24T01:42:42.258Z,24.45
2022-08-24T01:43:42.244Z,24.47
2022-08-24T01:44:42.233Z,24.40
2022-08-24T01:45:42.221Z,24.43
2022-08-24T01:46:42.289Z,24.37
2022-08-24T01:47:42.192Z,24.40
2022-08-24T01:48:42.182Z,24.36
2022-08-24T01:49:42.172Z,24.43
2022-08-24T01:50:42.154Z,24.52
2022-08-24T01:51:42.144Z,24.44
2022-08-24T01:53:03.972Z,24.40
2022-08-24T01:53:42.117Z,24.41
2022-08-24T01:54:43.395Z,24.38
2022-08-24T01:55:42.095Z,24.36
2022-08-24T01:56:42.082Z,24.31
2022-08-24T01:57:42.070Z,24.31
2022-08-24T01:58:42.054Z,24.40
2022-08-24T01:59:42.042Z,24.36
2022-08-24T02:00:42.035Z,24.37
2022-08-24T02:01:42.075Z,24.37
2022-08-24T02:02:42.078Z,24.36
2022-08-24T02:03:41.993Z,24.36
2022-08-24T02:04:41.983Z,24.37
2022-08-24T02:05:41.968Z,24.33
2022-08-24T02:06:41.964Z,24.38
2022-08-24T02:07:41.945Z,24.33
2022-08-24T02:08:41.938Z,24.33
2022-08-24T02:09:41.919Z,24.36
2022-08-24T02:10:41.910Z,24.28
2022-08-24T02:11:41.898Z,24.33
2022-08-24T02:12:41.879Z,24.34
2022-08-24T02:13:41.869Z,24.11
2022-08-24T02:14:41.856Z,24.10
2022-08-24T02:15:41.870Z,23.98
2022-08-24T02:16:41.834Z,23.92
2022-08-24T02:17:41.822Z,23.94
2022-08-24T02:18:41.808Z,23.97
2022-08-24T02:19:41.797Z,23.91
2022-08-24T02:20:41.782Z,23.96
2022-08-24T02:21:41.773Z,23.98
2022-08-24T02:22:41.758Z,24.04
2022-08-24T02:23:41.746Z,24.06
2022-08-24T02:24:41.733Z,24.07
2022-08-24T02:25:41.720Z,24.10
2022-08-24T02:26:41.708Z,24.07
2022-08-24T02:27:41.695Z,24.08
2022-08-24T02:28:41.684Z,24.10
2022-08-24T02:29:41.672Z,24.10
2022-08-24T02:30:41.752Z,24.07
2022-08-24T02:31:41.641Z,23.96
2022-08-24T02:32:41.635Z,23.92
2022-08-24T02:33:41.622Z,23.84
2022-08-24T02:34:41.603Z,23.88
2022-08-24T02:35:41.588Z,23.84
2022-08-24T02:36:41.587Z,23.82
2022-08-24T02:37:43.434Z,23.79
2022-08-24T02:38:41.555Z,23.73
2022-08-24T02:39:41.545Z,23.70
2022-08-24T02:40:41.532Z,23.71
2022-08-24T02:41:41.519Z,23.76
2022-08-24T02:42:41.503Z,23.66
2022-08-24T02:43:41.493Z,23.66
2022-08-24T02:44:41.483Z,23.71
2022-08-24T02:45:41.464Z,23.74
2022-08-24T02:46:41.514Z,23.69
2022-08-24T02:47:41.433Z,23.73
2022-08-24T02:48:41.428Z,23.73
2022-08-24T02:49:41.412Z,23.78
2022-08-24T02:50:41.404Z,23.78
2022-08-24T02:51:45.060Z,23.66
2022-08-24T02:52:41.376Z,23.64
2022-08-24T02:53:41.366Z,23.60
2022-08-24T02:54:41.349Z,23.67
2022-08-24T02:55:41.339Z,23.55
2022-08-24T02:56:41.324Z,23.67
2022-08-24T02:57:41.306Z,23.61
2022-08-24T02:58:41.303Z,23.63
2022-08-24T02:59:41.289Z,23.61
2022-08-24T03:00:41.273Z,23.69
2022-08-24T03:01:41.365Z,23.66
2022-08-24T03:02:41.299Z,23.70
2022-08-24T03:03:41.236Z,23.66
2022-08-24T03:04:41.221Z,23.61
2022-08-24T03:05:41.210Z,23.64
2022-08-24T03:06:41.191Z,23.70
2022-08-24T03:07:41.183Z,23.63
2022-08-24T03:08:41.170Z,23.66
2022-08-24T03:09:41.161Z,23.66
2022-08-24T03:10:41.144Z,23.61
2022-08-24T03:11:45.311Z,23.56
2022-08-24T03:12:41.116Z,23.59
2022-08-24T03:13:41.102Z,23.60
2022-08-24T03:14:41.090Z,23.54
2022-08-24T03:15:41.102Z,23.52
2022-08-24T03:16:41.071Z,23.52
2022-08-24T03:17:41.136Z,23.55
2022-08-24T03:18:41.042Z,23.56
2022-08-24T03:19:41.031Z,23.52
2022-08-24T03:20:41.021Z,23.52
2022-08-24T03:21:41.001Z,23.55
2022-08-24T03:22:40.989Z,23.54
2022-08-24T03:23:40.975Z,23.55
2022-08-24T03:24:40.959Z,23.45
2022-08-24T03:25:40.955Z,23.48
2022-08-24T03:26:44.061Z,23.46
2022-08-24T03:27:40.925Z,23.48
2022-08-24T03:28:40.911Z,23.44
2022-08-24T03:29:40.901Z,23.39
2022-08-24T03:30:42.054Z,23.37
2022-08-24T03:31:40.873Z,23.41
2022-08-24T03:32:40.852Z,23.39
2022-08-24T03:33:40.845Z,23.37
2022-08-24T03:34:40.828Z,23.33
2022-08-24T03:35:40.821Z,23.33
2022-08-24T03:36:40.808Z,23.31
2022-08-24T03:37:40.796Z,23.36
2022-08-24T03:38:40.780Z,23.31
2022-08-24T03:39:40.769Z,23.28
2022-08-24T03:40:40.754Z,23.25
2022-08-24T03:41:40.744Z,23.26
2022-08-24T03:42:40.724Z,23.21
2022-08-24T03:43:40.719Z,23.18
2022-08-24T03:44:40.699Z,23.14
2022-08-24T03:45:40.722Z,23.17
2022-08-24T03:46:40.677Z,23.14
2022-08-24T03:47:40.666Z,23.07
2022-08-24T03:48:40.652Z,23.03
2022-08-24T03:49:40.635Z,22.91
2022-08-24T03:50:40.626Z,22.88
2022-08-24T03:51:40.604Z,22.73
2022-08-24T03:52:40.599Z,22.77
2022-08-24T03:53:42.936Z,22.67
2022-08-24T03:54:40.572Z,22.73
2022-08-24T03:55:40.559Z,22.64
2022-08-24T03:56:40.543Z,22.68
2022-08-24T03:57:40.534Z,22.71
2022-08-24T03:58:40.520Z,22.86
2022-08-24T03:59:46.171Z,22.78
2022-08-24T04:00:40.489Z,22.77
2022-08-24T04:01:40.587Z,22.83
2022-08-24T04:02:40.509Z,22.81
2022-08-24T04:03:40.458Z,22.85
2022-08-24T04:04:40.437Z,22.86
2022-08-24T04:05:40.427Z,22.95
2022-08-24T04:06:40.414Z,22.89
2022-08-24T04:07:40.408Z,22.89
2022-08-24T04:08:40.386Z,22.91
2022-08-24T04:09:40.378Z,22.86
2022-08-24T04:10:40.353Z,22.85
2022-08-24T04:11:41.465Z,22.77
2022-08-24T04:12:40.345Z,22.74
2022-08-24T04:13:40.330Z,22.66
2022-08-24T04:14:40.306Z,22.67
2022-08-24T04:15:40.299Z,22.61
2022-08-24T04:16:40.444Z,22.58
2022-08-24T04:17:40.277Z,22.62
2022-08-24T04:18:40.261Z,22.61
2022-08-24T04:19:40.238Z,22.61
2022-08-24T04:20:40.224Z,22.61
2022-08-24T04:21:40.214Z,22.64
2022-08-24T04:22:40.200Z,22.52
2022-08-24T04:23:47.314Z,22.55
2022-08-24T04:24:40.168Z,22.59
2022-08-24T04:25:40.158Z,22.46
2022-08-24T04:26:44.256Z,22.58
2022-08-24T04:27:40.142Z,22.53
2022-08-24T04:28:40.119Z,22.56
2022-08-24T04:29:40.107Z,22.52
2022-08-24T04:30:40.090Z,22.59
2022-08-24T04:31:40.186Z,22.61
2022-08-24T04:32:40.064Z,22.58
2022-08-24T04:33:40.053Z,22.61
2022-08-24T04:34:40.034Z,22.55
2022-08-24T04:35:40.026Z,22.59
2022-08-24T04:36:40.011Z,22.52
2022-08-24T04:37:39.994Z,22.44
2022-08-24T04:38:39.980Z,22.40
2022-08-24T04:39:39.969Z,22.36
2022-08-24T04:40:39.959Z,22.28
2022-08-24T04:41:39.945Z,22.31
2022-08-24T04:42:39.928Z,22.36
2022-08-24T04:43:39.915Z,22.30
2022-08-24T04:44:39.902Z,22.30
2022-08-24T04:45:39.953Z,22.34
2022-08-24T04:46:39.875Z,22.46
2022-08-24T04:47:39.861Z,22.41
2022-08-24T04:48:39.845Z,22.46
2022-08-24T04:49:39.831Z,22.51
2022-08-24T04:50:39.819Z,22.48
2022-08-24T04:51:39.807Z,22.53
2022-08-24T04:52:39.794Z,22.36
2022-08-24T04:53:39.781Z,22.33
2022-08-24T04:54:39.765Z,22.22
2022-08-24T04:55:39.753Z,22.25
2022-08-24T04:56:39.736Z,22.19
2022-08-24T04:57:39.723Z,22.13
2022-08-24T04:58:39.710Z,22.19
2022-08-24T04:59:39.695Z,22.21
2022-08-24T05:00:39.747Z,22.34
2022-08-24T05:01:39.675Z,22.33
2022-08-24T05:02:44.229Z,22.44
2022-08-24T05:03:39.639Z,22.49
2022-08-24T05:04:39.627Z,22.52
2022-08-24T05:05:39.617Z,22.49
2022-08-24T05:06:39.601Z,22.49
2022-08-24T05:07:39.584Z,22.51
2022-08-24T05:08:39.573Z,22.55
2022-08-24T05:09:39.564Z,22.48
2022-08-24T05:10:39.550Z,22.48
2022-08-24T05:11:39.533Z,22.59
2022-08-24T05:12:39.517Z,22.58
2022-08-24T05:13:39.506Z,22.46
2022-08-24T05:14:39.499Z,22.55
2022-08-24T05:15:39.479Z,22.52
2022-08-24T05:16:39.606Z,22.48
2022-08-24T05:17:39.454Z,22.46
2022-08-24T05:18:39.440Z,22.52
2022-08-24T05:19:39.423Z,22.51
2022-08-24T05:20:39.412Z,22.38
2022-08-24T05:21:40.123Z,22.36
2022-08-24T05:22:39.384Z,22.38
2022-08-24T05:23:39.371Z,22.30
2022-08-24T05:24:39.358Z,22.23
2022-08-24T05:25:39.339Z,22.21
2022-08-24T05:26:39.328Z,22.25
2022-08-24T05:27:39.312Z,22.36
2022-08-24T05:28:39.303Z,22.40
2022-08-24T05:29:39.292Z,22.48
2022-08-24T05:30:42.450Z,22.43
2022-08-24T05:31:39.339Z,22.55
2022-08-24T05:32:39.259Z,22.52
2022-08-24T05:33:39.231Z,22.66
2022-08-24T05:34:39.230Z,22.64
2022-08-24T05:35:39.214Z,22.62
2022-08-24T05:36:39.199Z,22.67
2022-08-24T05:37:39.179Z,22.62
2022-08-24T05:38:39.186Z,22.66
2022-08-24T05:39:39.159Z,22.61
2022-08-24T05:40:39.145Z,22.66
2022-08-24T05:41:39.133Z,22.58
2022-08-24T05:42:39.115Z,22.55
2022-08-24T05:43:39.102Z,22.59
2022-08-24T05:44:39.088Z,22.68
2022-08-24T05:45:39.076Z,22.48
2022-08-24T05:46:39.137Z,22.38
2022-08-24T05:47:39.050Z,22.30
2022-08-24T05:48:39.034Z,22.33
2022-08-24T05:49:41.521Z,22.33
2022-08-24T05:50:39.003Z,22.34
2022-08-24T05:51:38.991Z,22.34
2022-08-24T05:52:38.980Z,22.38
2022-08-24T05:53:38.968Z,22.36
2022-08-24T05:54:38.955Z,22.52
2022-08-24T05:55:38.940Z,22.38
2022-08-24T05:56:38.923Z,22.53
2022-08-24T05:57:38.913Z,22.48
2022-08-24T05:58:38.901Z,22.49
2022-08-24T05:59:38.888Z,22.52
2022-08-24T06:00:38.875Z,22.51
2022-08-24T06:01:43.369Z,22.62
2022-08-24T06:02:38.958Z,22.51
2022-08-24T06:03:38.833Z,22.55
2022-08-24T06:04:38.814Z,22.56
2022-08-24T06:05:38.801Z,22.52
2022-08-24T06:06:38.792Z,22.52
2022-08-24T06:07:38.778Z,22.44
2022-08-24T06:08:41.504Z,22.53
2022-08-24T06:09:38.753Z,22.48
2022-08-24T06:10:38.769Z,22.44
2022-08-24T06:11:38.724Z,22.55
2022-08-24T06:12:38.712Z,22.53
2022-08-24T06:13:38.698Z,22.51
2022-08-24T06:14:38.686Z,22.62
2022-08-24T06:15:38.669Z,22.58
2022-08-24T06:16:38.763Z,22.59
2022-08-24T06:17:38.858Z,22.68
2022-08-24T06:18:38.627Z,22.66
2022-08-24T06:19:38.616Z,22.73
2022-08-24T06:20:38.606Z,22.71
2022-08-24T06:21:38.593Z,22.86
2022-08-24T06:22:38.580Z,22.80
2022-08-24T06:23:38.565Z,22.83
2022-08-24T06:24:38.556Z,22.91
2022-08-24T06:25:38.539Z,22.93
2022-08-24T06:26:38.529Z,23.06
2022-08-24T06:27:38.512Z,23.04
2022-08-24T06:28:38.498Z,23.13
2022-08-24T06:29:38.497Z,23.10
2022-08-24T06:30:38.472Z,23.15
2022-08-24T06:31:39.989Z,23.18
2022-08-24T06:32:38.449Z,23.26
2022-08-24T06:33:38.434Z,23.42
2022-08-24T06:34:38.418Z,23.37
2022-08-24T06:35:38.407Z,23.61
2022-08-24T06:36:39.248Z,23.66
2022-08-24T06:37:38.383Z,23.71
2022-08-24T06:38:38.369Z,23.78
2022-08-24T06:39:38.356Z,23.84
2022-08-24T06:40:38.353Z,23.89
2022-08-24T06:41:38.332Z,23.96
2022-08-24T06:42:38.316Z,23.98
2022-08-24T06:43:38.303Z,24.00
2022-08-24T06:44:38.292Z,24.08
2022-08-24T06:45:38.279Z,24.16
2022-08-24T06:46:38.310Z,24.13
2022-08-24T06:47:38.254Z,24.13
2022-08-24T06:48:38.243Z,24.18
2022-08-24T06:49:38.228Z,24.25
2022-08-24T06:50:38.212Z,24.34
2022-08-24T06:51:38.206Z,24.29
2022-08-24T06:52:38.194Z,24.43
2022-08-24T06:53:38.181Z,24.58
2022-08-24T06:54:38.167Z,24.62
2022-08-24T06:55:38.157Z,24.63
2022-08-24T06:56:38.147Z,24.63
2022-08-24T06:57:38.135Z,24.75
2022-08-24T06:58:38.130Z,24.75
2022-08-24T06:59:38.112Z,24.94
2022-08-24T07:00:38.101Z,25.08
2022-08-24T07:01:38.160Z,25.30
2022-08-24T07:02:38.155Z,25.66
2022-08-24T07:03:38.067Z,26.04
2022-08-24T07:04:38.073Z,26.63
2022-08-24T07:05:38.053Z,27.20
2022-08-24T07:06:38.041Z,27.88
2022-08-24T07:07:38.029Z,28.34
2022-08-24T07:08:38.027Z,29.02
2022-08-24T07:09:38.014Z,29.68
2022-08-24T07:10:38.007Z,30.29
2022-08-24T07:11:38.000Z,31.04
2022-08-24T07:12:38.001Z,31.63
2022-08-24T07:13:37.985Z,31.87
2022-08-24T07:14:37.981Z,32.19
2022-08-24T07:15:38.065Z,32.55
2022-08-24T07:16:37.973Z,32.88
2022-08-24T07:17:37.967Z,33.19
2022-08-24T07:18:37.962Z,33.30
2022-08-24T07:19:37.970Z,33.52
2022-08-24T07:20:37.954Z,33.37
2022-08-24T07:21:37.947Z,33.57
2022-08-24T07:22:37.947Z,33.71
2022-08-24T07:23:41.840Z,34.04
2022-08-24T07:24:37.932Z,33.63
2022-08-24T07:25:37.934Z,33.60
2022-08-24T07:26:37.940Z,33.92
2022-08-24T07:27:37.932Z,33.41
2022-08-24T07:28:37.926Z,33.79
2022-08-24T07:29:50.518Z,34.22
2022-08-24T07:30:37.937Z,34.64
2022-08-24T07:31:38.046Z,35.07
2022-08-24T07:32:37.921Z,35.56
2022-08-24T07:33:37.927Z,35.87
2022-08-24T07:34:37.918Z,36.02
2022-08-24T07:35:37.917Z,35.91
2022-08-24T07:36:42.261Z,36.29
2022-08-24T07:37:41.239Z,36.49
2022-08-24T07:38:37.918Z,36.38
2022-08-24T07:39:37.921Z,36.29
2022-08-24T07:41:01.736Z,36.51
2022-08-24T07:41:56.791Z,36.25
2022-08-24T07:42:37.919Z,36.30
2022-08-24T07:43:40.933Z,36.69
2022-08-24T07:44:37.919Z,36.94
2022-08-24T07:45:37.922Z,36.78
2022-08-24T07:46:38.012Z,36.35
2022-08-24T07:47:41.672Z,36.35
2022-08-24T07:48:37.922Z,36.20
2022-08-24T07:49:39.547Z,36.52
2022-08-24T07:50:37.927Z,37.00
2022-08-24T07:51:37.985Z,37.13
2022-08-24T07:52:37.935Z,37.26
2022-08-24T07:53:52.996Z,37.60
2022-08-24T07:54:37.936Z,37.80
2022-08-24T07:55:45.892Z,37.96
2022-08-24T07:56:37.936Z,38.20
2022-08-24T07:57:37.945Z,38.50
2022-08-24T07:58:37.954Z,38.57
2022-08-24T07:59:37.964Z,38.73
2022-08-24T08:00:37.951Z,38.44
2022-08-24T08:01:38.010Z,38.62
2022-08-24T08:02:37.989Z,39.06
2022-08-24T08:03:37.960Z,39.02
2022-08-24T08:04:37.969Z,39.36
2022-08-24T08:05:37.972Z,39.68
2022-08-24T08:06:37.974Z,39.65
2022-08-24T08:07:37.989Z,39.62
2022-08-24T08:08:37.986Z,39.65
2022-08-24T08:09:37.988Z,39.82
2022-08-24T08:10:37.991Z,39.83
2022-08-24T08:11:37.997Z,39.82
2022-08-24T08:12:38.002Z,39.77
2022-08-24T08:13:38.089Z,39.73
2022-08-24T08:14:38.010Z,39.74
2022-08-24T08:15:38.050Z,39.80
2022-08-24T08:16:38.021Z,40.01
2022-08-24T08:17:38.027Z,40.28
2022-08-24T08:18:38.024Z,40.38
2022-08-24T08:19:38.033Z,40.60
2022-08-24T08:20:38.042Z,40.43
2022-08-24T08:21:38.049Z,40.30
2022-08-24T08:22:38.048Z,40.46
2022-08-24T08:23:38.052Z,40.71
2022-08-24T08:24:38.070Z,40.38
2022-08-24T08:25:38.065Z,40.07
2022-08-24T08:26:38.069Z,40.25
2022-08-24T08:27:38.097Z,40.46
2022-08-24T08:28:38.269Z,40.68
2022-08-24T08:29:38.087Z,40.82
2022-08-24T08:30:38.145Z,40.75
2022-08-24T08:31:38.103Z,39.73
2022-08-24T08:32:38.104Z,39.95
2022-08-24T08:33:38.109Z,40.40
2022-08-24T08:34:38.120Z,40.68
2022-08-24T08:35:38.122Z,40.92
2022-08-24T08:36:38.134Z,41.25
2022-08-24T08:37:38.154Z,41.36
2022-08-24T08:38:38.153Z,41.54
2022-08-24T08:39:38.146Z,41.85
2022-08-24T08:40:38.154Z,42.19
2022-08-24T08:41:38.161Z,42.18
2022-08-24T08:42:38.167Z,42.23
2022-08-24T08:43:38.174Z,42.30
2022-08-24T08:44:38.182Z,42.34
2022-08-24T08:45:38.186Z,41.77
2022-08-24T08:46:40.841Z,41.04
2022-08-24T08:47:38.196Z,40.23
2022-08-24T08:48:38.202Z,39.35
2022-08-24T08:49:38.208Z,38.57
2022-08-24T08:50:38.209Z,38.02
2022-08-24T08:51:38.215Z,37.32
2022-08-24T08:52:38.216Z,36.86
2022-08-24T08:53:38.221Z,36.36
2022-08-24T08:54:38.218Z,36.11
2022-08-24T08:55:38.230Z,35.84
2022-08-24T08:56:38.225Z,35.58
2022-08-24T08:57:38.229Z,35.35
2022-08-24T08:58:38.228Z,35.04
2022-08-24T08:59:38.227Z,34.78
2022-08-24T09:00:38.227Z,34.53
2022-08-24T09:01:46.461Z,34.40
2022-08-24T09:02:38.226Z,34.32
2022-08-24T09:03:38.222Z,34.16
2022-08-24T09:04:38.361Z,33.95
2022-08-24T09:05:38.223Z,33.89
2022-08-24T09:06:38.227Z,33.79
2022-08-24T09:07:38.225Z,33.78
2022-08-24T09:08:38.214Z,33.79
2022-08-24T09:09:38.212Z,33.60
2022-08-24T09:10:38.209Z,33.64
2022-08-24T09:11:38.202Z,33.66
2022-08-24T09:12:38.199Z,33.47
2022-08-24T09:13:38.201Z,33.41
2022-08-24T09:14:38.196Z,33.29
2022-08-24T09:15:38.192Z,33.10
2022-08-24T09:16:38.273Z,33.03
2022-08-24T09:17:38.181Z,32.94
2022-08-24T09:18:38.192Z,32.88
2022-08-24T09:19:38.173Z,32.97
2022-08-24T09:20:38.171Z,33.01
2022-08-24T09:21:38.166Z,32.99
2022-08-24T09:22:38.162Z,33.19
2022-08-24T09:23:38.157Z,33.14
2022-08-24T09:24:38.151Z,33.14
2022-08-24T09:25:38.146Z,33.07
2022-08-24T09:26:38.149Z,33.09
2022-08-24T09:27:38.134Z,33.13
2022-08-24T09:28:38.138Z,33.19
2022-08-24T09:29:38.125Z,33.14
2022-08-24T09:30:38.164Z,33.24
2022-08-24T09:31:38.116Z,33.17
2022-08-24T09:32:39.229Z,33.14
2022-08-24T09:33:38.106Z,33.14
2022-08-24T09:34:38.100Z,33.12
2022-08-24T09:35:38.102Z,33.06
2022-08-24T09:36:38.088Z,33.13
2022-08-24T09:37:41.725Z,33.17
2022-08-24T09:38:38.077Z,33.19
2022-08-24T09:39:38.071Z,33.22
2022-08-24T09:40:38.076Z,33.19
2022-08-24T09:41:38.059Z,33.19
2022-08-24T09:42:38.050Z,33.19
2022-08-24T09:43:38.051Z,33.24
2022-08-24T09:44:38.044Z,33.26
2022-08-24T09:45:38.091Z,33.20
2022-08-24T09:46:38.028Z,33.22
2022-08-24T09:47:38.022Z,33.27
2022-08-24T09:48:38.020Z,33.22
2022-08-24T09:49:38.010Z,33.35
2022-08-24T09:50:38.003Z,33.36
2022-08-24T09:51:38.000Z,33.27
2022-08-24T09:52:37.994Z,33.27
2022-08-24T09:53:37.988Z,33.27
2022-08-24T09:54:37.980Z,33.24
2022-08-24T09:55:37.975Z,33.37
2022-08-24T09:56:37.974Z,33.54
2022-08-24T09:57:59.477Z,33.45
2022-08-24T09:58:37.959Z,33.52
2022-08-24T09:59:37.952Z,33.57
2022-08-24T10:00:37.946Z,33.73
2022-08-24T10:01:37.991Z,33.74
2022-08-24T10:02:38.023Z,33.86
2022-08-24T10:03:38.760Z,33.89
2022-08-24T10:04:38.052Z,33.88
2022-08-24T10:05:38.015Z,34.01
2022-08-24T10:06:37.909Z,34.10
2022-08-24T10:07:37.907Z,34.25
2022-08-24T10:08:37.905Z,34.34
2022-08-24T10:09:37.900Z,34.47
2022-08-24T10:10:37.888Z,34.57
2022-08-24T10:11:37.881Z,34.52
2022-08-24T10:12:37.878Z,34.42
2022-08-24T10:13:37.869Z,34.28
2022-08-24T10:14:37.859Z,34.18
2022-08-24T10:15:37.856Z,34.26
2022-08-24T10:16:37.915Z,34.16
2022-08-24T10:17:37.846Z,33.97
2022-08-24T10:18:37.839Z,34.06
2022-08-24T10:19:37.834Z,34.26
2022-08-24T10:20:37.827Z,34.26
2022-08-24T10:21:37.821Z,34.38
2022-08-24T10:22:37.811Z,34.55
2022-08-24T10:23:37.813Z,34.66
2022-08-24T10:24:37.806Z,34.90
2022-08-24T10:25:37.800Z,35.01
2022-08-24T10:26:37.793Z,35.05
2022-08-24T10:27:37.785Z,35.21
2022-08-24T10:28:37.776Z,35.23
2022-08-24T10:29:37.778Z,35.38
2022-08-24T10:30:37.786Z,35.38
2022-08-24T10:31:37.808Z,35.48
2022-08-24T10:32:37.754Z,35.54
2022-08-24T10:33:37.754Z,35.63
2022-08-24T10:34:37.748Z,35.66
2022-08-24T10:35:37.740Z,35.68
2022-08-24T10:36:37.731Z,35.73
2022-08-24T10:37:37.732Z,35.85
2022-08-24T10:38:37.724Z,35.81
2022-08-24T10:39:37.723Z,35.95
2022-08-24T10:40:37.773Z,36.03
2022-08-24T10:41:38.805Z,36.07
2022-08-24T10:42:37.700Z,36.14
2022-08-24T10:43:37.703Z,36.23
2022-08-24T10:44:37.693Z,36.44
2022-08-24T10:45:37.737Z,36.40
2022-08-24T10:46:37.680Z,36.35
2022-08-24T10:47:37.686Z,36.27
2022-08-24T10:48:37.671Z,36.26
2022-08-24T10:49:37.676Z,36.13
2022-08-24T10:50:37.660Z,36.22
2022-08-24T10:51:37.661Z,36.36
2022-08-24T10:52:37.654Z,36.38
2022-08-24T10:53:37.645Z,36.32
2022-08-24T10:54:37.645Z,36.38
2022-08-24T10:55:37.635Z,36.57
2022-08-24T10:56:37.628Z,36.56
2022-08-24T10:57:37.640Z,36.36
2022-08-24T10:58:37.621Z,36.42
2022-08-24T10:59:37.615Z,36.36
2022-08-24T11:00:37.615Z,36.38
2022-08-24T11:01:37.707Z,36.42
2022-08-24T11:02:37.650Z,36.44
2022-08-24T11:03:37.597Z,36.47
2022-08-24T11:04:37.591Z,36.52
2022-08-24T11:05:37.592Z,36.56
2022-08-24T11:06:37.582Z,36.54
2022-08-24T11:07:37.576Z,36.66
2022-08-24T11:08:37.572Z,36.71
2022-08-24T11:09:37.592Z,36.56
2022-08-24T11:10:37.573Z,36.48
2022-08-24T11:11:40.458Z,36.40
2022-08-24T11:12:37.556Z,36.04
2022-08-24T11:13:37.546Z,36.02
2022-08-24T11:14:37.544Z,35.97
2022-08-24T11:15:37.546Z,35.95
2022-08-24T11:16:37.576Z,35.84
2022-08-24T11:17:37.533Z,35.81
2022-08-24T11:18:37.535Z,35.84
2022-08-24T11:19:37.645Z,35.91
2022-08-24T11:20:37.517Z,36.04
2022-08-24T11:21:37.512Z,35.97
2022-08-24T11:22:37.505Z,35.90
2022-08-24T11:23:37.504Z,35.85
2022-08-24T11:24:37.497Z,35.94
2022-08-24T11:25:37.496Z,35.79
2022-08-24T11:26:37.487Z,35.60
2022-08-24T11:27:37.485Z,35.57
2022-08-24T11:28:37.483Z,35.57
2022-08-24T11:29:37.481Z,35.57
2022-08-24T11:30:37.469Z,35.58
2022-08-24T11:31:37.479Z,35.58
2022-08-24T11:32:37.455Z,35.61
2022-08-24T11:33:37.452Z,35.69
2022-08-24T11:34:37.446Z,35.85
2022-08-24T11:35:37.446Z,35.84
2022-08-24T11:36:37.442Z,35.95
2022-08-24T11:37:37.433Z,36.11
2022-08-24T11:38:37.427Z,36.00
2022-08-24T11:39:37.421Z,36.07
2022-08-24T11:40:37.419Z,36.11
2022-08-24T11:41:37.414Z,36.04
2022-08-24T11:42:37.411Z,36.07
2022-08-24T11:43:37.403Z,35.97
2022-08-24T11:44:37.397Z,35.79
2022-08-24T11:45:37.394Z,35.69
2022-08-24T11:46:37.448Z,35.65
2022-08-24T11:47:37.386Z,35.60
2022-08-24T11:48:37.487Z,35.41
2022-08-24T11:49:37.378Z,35.34
2022-08-24T11:50:37.372Z,35.32
2022-08-24T11:51:37.363Z,35.29
2022-08-24T11:52:37.359Z,35.21
2022-08-24T11:54:37.348Z,35.24
2022-08-24T11:55:46.899Z,35.29
2022-08-24T11:56:37.340Z,35.39
2022-08-24T11:57:37.334Z,35.50
2022-08-24T11:58:37.327Z,35.57
2022-08-24T11:59:37.325Z,35.44
2022-08-24T12:00:37.326Z,35.39
2022-08-24T12:01:44.476Z,35.39
2022-08-24T12:02:37.477Z,35.32
2022-08-24T12:03:37.304Z,35.19
2022-08-24T12:04:37.295Z,35.28
2022-08-24T12:05:37.301Z,35.34
2022-08-24T12:06:37.291Z,35.32
2022-08-24T12:07:37.282Z,35.19
2022-08-24T12:08:37.273Z,35.13
2022-08-24T12:09:37.268Z,35.14
2022-08-24T12:10:37.270Z,35.21
2022-08-24T12:11:37.263Z,35.32
2022-08-24T12:12:37.264Z,35.47
2022-08-24T12:13:37.257Z,35.54
2022-08-24T12:14:37.243Z,35.79
2022-08-24T12:15:37.240Z,35.88
2022-08-24T12:16:37.313Z,35.84
2022-08-24T12:17:37.226Z,35.94
2022-08-24T12:18:37.224Z,36.02
2022-08-24T12:19:37.219Z,36.06
2022-08-24T12:20:37.219Z,36.09
2022-08-24T12:21:37.209Z,36.11
2022-08-24T12:22:37.201Z,36.20
2022-08-24T12:23:37.200Z,36.25
2022-08-24T12:24:37.192Z,36.29
2022-08-24T12:25:37.191Z,36.35
2022-08-24T12:26:37.185Z,36.29
2022-08-24T12:27:37.198Z,36.41
2022-08-24T12:28:37.173Z,36.41
2022-08-24T12:29:37.170Z,36.33
2022-08-24T12:30:37.177Z,36.29
2022-08-24T12:31:37.235Z,36.33
2022-08-24T12:32:37.150Z,36.26
2022-08-24T12:33:37.717Z,36.20
2022-08-24T12:34:37.148Z,36.32
2022-08-24T12:35:37.144Z,36.41
2022-08-24T12:36:37.138Z,36.45
2022-08-24T12:37:37.131Z,36.54
2022-08-24T12:38:37.128Z,36.67
2022-08-24T12:39:37.119Z,36.67
2022-08-24T12:40:37.118Z,36.64
2022-08-24T12:41:37.113Z,36.70
2022-08-24T12:42:37.109Z,36.70
2022-08-24T12:43:37.115Z,36.67
2022-08-24T12:44:37.099Z,36.74
2022-08-24T12:45:37.098Z,36.74
2022-08-24T12:46:37.202Z,36.70
2022-08-24T12:47:37.088Z,36.67
2022-08-24T12:48:37.080Z,36.69
2022-08-24T12:49:37.081Z,36.59
2022-08-24T12:50:37.071Z,36.45
2022-08-24T12:51:37.086Z,36.51
2022-08-24T12:52:37.062Z,36.47
2022-08-24T12:53:37.060Z,36.44